createdAt,value
2019-03-18T00:01:16.382Z,48.92
2019-03-18T00:03:47.418Z,49.75
2019-03-18T00:06:19.177Z,50.15
2019-03-18T00:08:50.958Z,51.42
2019-03-18T00:11:22.787Z,51.80
2019-03-18T00:13:53.230Z,51.00
2019-03-18T00:16:24.732Z,49.20
2019-03-18T00:18:55.595Z,50.58
2019-03-18T00:21:28.484Z,58.07
2019-03-18T00:24:00.138Z,53.13
2019-03-18T00:26:31.588Z,50.90
2019-03-18T00:29:02.318Z,47.80
2019-03-18T00:31:33.973Z,46.30
2019-03-18T00:34:04.604Z,47.45
2019-03-18T00:36:35.232Z,49.73
2019-03-18T00:39:08.107Z,56.88
2019-03-18T00:41:38.357Z,56.18
2019-03-18T00:44:08.861Z,59.25
2019-03-18T00:46:39.554Z,59.35
2019-03-18T00:49:10.332Z,56.42
2019-03-18T00:51:41.211Z,55.52
2019-03-18T00:54:12.818Z,49.60
2019-03-18T00:56:44.817Z,52.05
2019-03-18T00:59:15.713Z,59.15
2019-03-18T01:01:47.881Z,56.85
2019-03-18T01:04:18.680Z,62.60
2019-03-18T01:06:50.167Z,61.15
2019-03-18T01:09:23.454Z,62.10
2019-03-18T01:11:53.784Z,67.30
2019-03-18T01:14:26.566Z,62.15
2019-03-18T01:16:57.297Z,58.90
2019-03-18T01:19:28.659Z,56.25
2019-03-18T01:22:00.416Z,60.67
2019-03-18T01:24:33.067Z,63.40
2019-03-18T01:27:04.730Z,63.28
2019-03-18T01:29:35.087Z,62.40
2019-03-18T01:32:05.886Z,60.35
2019-03-18T01:34:36.722Z,61.18
2019-03-18T01:37:07.251Z,60.88
2019-03-18T01:39:37.977Z,56.42
2019-03-18T01:42:10.044Z,58.73
2019-03-18T01:44:40.469Z,61.10
2019-03-18T01:47:11.610Z,55.00
2019-03-18T01:49:41.937Z,62.20
2019-03-18T01:52:12.564Z,64.65
2019-03-18T01:54:44.615Z,60.73
2019-03-18T01:57:14.951Z,55.98
2019-03-18T01:59:45.544Z,52.88
2019-03-18T02:02:20.172Z,50.30
2019-03-18T02:04:50.424Z,49.48
2019-03-18T02:07:21.860Z,49.42
2019-03-18T02:09:53.178Z,46.92
2019-03-18T02:12:24.055Z,51.00
2019-03-18T02:14:55.324Z,50.58
2019-03-18T02:17:25.722Z,48.45
2019-03-18T02:19:56.271Z,51.88
2019-03-18T02:22:27.194Z,51.73
2019-03-18T02:24:58.642Z,55.10
2019-03-18T02:27:29.781Z,54.83
2019-03-18T02:30:00.519Z,55.88
2019-03-18T02:32:31.706Z,56.60
2019-03-18T02:35:04.950Z,42.23
2019-03-18T02:37:35.766Z,53.75
2019-03-18T02:40:08.675Z,52.90
2019-03-18T02:42:38.992Z,49.55
2019-03-18T02:45:12.668Z,46.23
2019-03-18T02:47:43.321Z,46.90
2019-03-18T02:50:16.146Z,46.00
2019-03-18T02:52:46.543Z,43.92
2019-03-18T02:55:17.495Z,42.45
2019-03-18T02:57:48.278Z,42.60
2019-03-18T03:00:19.140Z,42.83
2019-03-18T03:02:51.406Z,42.85
2019-03-18T03:05:21.634Z,42.40
2019-03-18T03:07:52.559Z,41.65
2019-03-18T03:10:23.304Z,42.80
2019-03-18T03:12:54.124Z,42.78
2019-03-18T03:15:25.576Z,41.90
2019-03-18T03:17:56.998Z,41.83
2019-03-18T03:20:29.500Z,43.00
2019-03-18T03:23:03.310Z,43.02
2019-03-18T03:25:34.995Z,43.75
2019-03-18T03:28:07.110Z,44.20
2019-03-18T03:30:38.416Z,43.45
2019-03-18T03:33:10.639Z,46.20
2019-03-18T03:35:41.369Z,41.95
2019-03-18T03:38:13.351Z,43.28
2019-03-18T03:40:43.752Z,44.15
2019-03-18T03:43:15.297Z,43.70
2019-03-18T03:45:46.354Z,43.65
2019-03-18T03:48:17.494Z,41.85
2019-03-18T03:50:47.725Z,42.65
2019-03-18T03:53:18.234Z,42.40
2019-03-18T03:55:49.570Z,45.35
2019-03-18T03:58:20.521Z,45.30
2019-03-18T04:00:51.253Z,46.15
2019-03-18T04:03:37.196Z,46.13
2019-03-18T04:05:54.570Z,45.00
2019-03-18T04:08:26.117Z,44.55
2019-03-18T04:10:56.763Z,43.55
2019-03-18T04:13:29.015Z,42.78
2019-03-18T04:16:00.872Z,40.92
2019-03-18T04:18:31.532Z,42.62
2019-03-18T04:21:02.178Z,40.45
2019-03-18T04:23:32.758Z,37.83
2019-03-18T04:26:03.900Z,36.85
2019-03-18T04:28:34.737Z,37.93
2019-03-18T04:31:05.601Z,39.38
2019-03-18T04:33:39.022Z,40.80
2019-03-18T04:36:09.491Z,39.25
2019-03-18T04:38:40.458Z,36.95
2019-03-18T04:41:11.463Z,35.70
2019-03-18T04:43:41.894Z,37.55
2019-03-18T04:46:12.419Z,34.53
2019-03-18T04:48:43.560Z,34.00
2019-03-18T04:51:15.038Z,35.38
2019-03-18T04:53:45.119Z,32.38
2019-03-18T04:56:15.964Z,35.10
2019-03-18T04:58:46.595Z,33.05
2019-03-18T05:01:17.431Z,33.55
2019-03-18T05:03:49.256Z,36.13
2019-03-18T05:06:22.528Z,38.80
2019-03-18T05:08:53.667Z,35.28
2019-03-18T05:11:26.192Z,34.95
2019-03-18T05:13:56.464Z,37.35
2019-03-18T05:16:27.456Z,35.73
2019-03-18T05:18:58.046Z,36.03
2019-03-18T05:21:29.886Z,35.85
2019-03-18T05:24:00.879Z,38.15
2019-03-18T05:26:31.613Z,43.63
2019-03-18T05:29:03.535Z,44.40
2019-03-18T05:31:34.001Z,45.75
2019-03-18T05:34:06.632Z,43.87
2019-03-18T05:36:37.417Z,44.30
2019-03-18T05:39:08.249Z,42.90
2019-03-18T05:41:38.937Z,44.00
2019-03-18T05:44:10.049Z,43.30
2019-03-18T05:46:40.646Z,42.00
2019-03-18T05:49:11.485Z,43.38
2019-03-18T05:51:42.664Z,44.67
2019-03-18T05:54:13.152Z,43.63
2019-03-18T05:56:43.887Z,26.90
2019-03-18T05:59:14.756Z,25.95
2019-03-18T06:01:45.556Z,25.40
2019-03-18T06:04:16.284Z,27.05
2019-03-18T06:06:47.039Z,25.57
2019-03-18T06:09:17.607Z,25.97
2019-03-18T06:11:48.483Z,28.73
2019-03-18T06:14:19.113Z,28.90
2019-03-18T06:16:50.255Z,31.70
2019-03-18T06:19:21.041Z,32.15
2019-03-18T06:21:52.336Z,30.45
2019-03-18T06:24:23.625Z,30.70
2019-03-18T06:26:54.759Z,29.98
2019-03-18T06:29:27.551Z,31.45
2019-03-18T06:31:58.139Z,32.35
2019-03-18T06:34:29.274Z,31.07
2019-03-18T06:37:01.461Z,25.12
2019-03-18T06:39:33.437Z,27.60
2019-03-18T06:42:04.732Z,25.20
2019-03-18T06:44:35.789Z,24.00
2019-03-18T06:47:06.686Z,25.82
2019-03-18T06:49:37.967Z,26.87
2019-03-18T06:52:11.367Z,27.20
2019-03-18T06:54:41.788Z,26.75
2019-03-18T06:57:12.523Z,26.73
2019-03-18T06:59:42.945Z,27.40
2019-03-18T07:02:13.681Z,27.10
2019-03-18T07:04:44.523Z,30.02
2019-03-18T07:07:15.247Z,30.37
2019-03-18T07:09:45.966Z,28.85
2019-03-18T07:12:17.636Z,27.58
2019-03-18T07:14:48.162Z,27.90
2019-03-18T07:17:18.897Z,27.13
2019-03-18T07:19:50.456Z,26.07
2019-03-18T07:22:20.872Z,28.17
2019-03-18T07:24:51.408Z,26.97
2019-03-18T07:27:22.338Z,26.77
2019-03-18T07:29:52.848Z,26.87
2019-03-18T07:32:25.337Z,27.05
2019-03-18T07:34:58.070Z,28.62
2019-03-18T07:37:28.861Z,27.87
2019-03-18T07:40:01.270Z,28.80
2019-03-18T07:42:32.057Z,31.50
2019-03-18T07:45:04.037Z,28.98
2019-03-18T07:47:34.297Z,30.30
2019-03-18T07:50:08.145Z,29.65
2019-03-18T07:52:38.776Z,31.00
2019-03-18T07:55:11.455Z,28.50
2019-03-18T07:57:43.231Z,29.80
2019-03-18T08:00:16.706Z,29.50
2019-03-18T08:02:48.170Z,29.63
2019-03-18T08:05:18.461Z,29.50
2019-03-18T08:07:49.422Z,26.12
2019-03-18T08:10:20.316Z,27.77
2019-03-18T08:12:51.617Z,31.05
2019-03-18T08:15:22.754Z,30.55
2019-03-18T08:17:55.863Z,30.37
2019-03-18T08:20:26.842Z,26.73
2019-03-18T08:23:01.467Z,27.77
2019-03-18T08:25:34.962Z,24.15
2019-03-18T08:28:10.816Z,22.77
2019-03-18T08:30:44.421Z,23.15
2019-03-18T08:33:21.083Z,20.92
2019-03-18T08:35:54.056Z,21.73
2019-03-18T08:38:27.700Z,19.12
2019-03-18T08:40:58.009Z,19.23
2019-03-18T08:43:29.982Z,19.70
2019-03-18T08:46:00.939Z,20.15
2019-03-18T08:48:32.471Z,19.60
2019-03-18T08:51:02.899Z,18.57
2019-03-18T08:53:33.636Z,18.32
2019-03-18T08:56:06.648Z,20.48
2019-03-18T08:58:37.213Z,18.35
2019-03-18T09:01:08.996Z,19.42
2019-03-18T09:03:39.736Z,16.23
2019-03-18T09:06:13.139Z,17.25
2019-03-18T09:08:44.579Z,17.82
2019-03-18T09:11:15.627Z,19.07
2019-03-18T09:13:46.003Z,18.20
2019-03-18T09:16:17.811Z,16.52
2019-03-18T09:18:49.051Z,13.88
2019-03-18T09:21:21.620Z,16.02
2019-03-18T09:23:52.720Z,15.50
2019-03-18T09:26:26.422Z,14.73
2019-03-18T09:28:58.630Z,14.63
2019-03-18T09:31:32.639Z,14.68
2019-03-18T09:34:03.481Z,11.08
2019-03-18T09:36:34.414Z,10.90
2019-03-18T09:39:08.936Z,10.93
2019-03-18T09:41:40.105Z,11.70
2019-03-18T09:44:11.130Z,8.68
2019-03-18T09:46:43.499Z,8.33
2019-03-18T09:49:21.480Z,6.03
2019-03-18T09:51:47.513Z,7.33
2019-03-18T09:54:18.042Z,6.12
2019-03-18T09:56:48.772Z,6.58
2019-03-18T09:59:19.646Z,6.42
2019-03-18T10:01:51.060Z,7.20
2019-03-18T10:04:21.587Z,6.87
2019-03-18T10:06:53.449Z,8.23
2019-03-18T10:09:24.074Z,7.22
2019-03-18T10:11:54.706Z,7.87
2019-03-18T10:14:25.440Z,7.50
2019-03-18T10:16:56.070Z,5.40
2019-03-18T10:19:33.526Z,6.78
2019-03-18T10:22:00.917Z,7.70
2019-03-18T10:24:31.336Z,7.45
2019-03-18T10:27:02.993Z,7.05
2019-03-18T10:29:34.131Z,6.35
2019-03-18T10:32:05.021Z,7.50
2019-03-18T10:34:35.806Z,7.22
2019-03-18T10:37:06.763Z,7.08
2019-03-18T10:39:37.369Z,7.37
2019-03-18T10:42:08.557Z,7.85
2019-03-18T10:44:41.045Z,7.50
2019-03-18T10:47:11.706Z,7.33
2019-03-18T10:49:46.539Z,8.85
2019-03-18T10:52:16.375Z,8.58
2019-03-18T10:54:47.604Z,7.60
2019-03-18T10:57:18.041Z,5.95
2019-03-18T10:59:50.262Z,6.17
2019-03-18T11:02:21.194Z,6.35
2019-03-18T11:04:52.795Z,6.42
2019-03-18T11:07:25.776Z,8.07
2019-03-18T11:09:57.630Z,6.75
2019-03-18T11:12:28.977Z,5.10
2019-03-18T11:15:00.895Z,5.45
2019-03-18T11:17:31.441Z,5.92
2019-03-18T11:20:05.075Z,4.87
2019-03-18T11:22:44.194Z,5.15
2019-03-18T11:25:15.901Z,7.53
2019-03-18T11:27:47.866Z,6.22
2019-03-18T11:30:20.392Z,6.22
2019-03-18T11:32:53.270Z,6.00
2019-03-18T11:35:25.052Z,5.75
2019-03-18T11:37:56.790Z,5.95
2019-03-18T11:40:28.460Z,8.35
2019-03-18T11:43:01.015Z,6.45
2019-03-18T11:45:34.314Z,6.20
2019-03-18T11:48:05.663Z,5.60
2019-03-18T11:50:37.087Z,5.97
2019-03-18T11:53:14.137Z,6.60
2019-03-18T11:55:43.312Z,7.30
2019-03-18T11:58:14.097Z,6.25
2019-03-18T12:00:45.869Z,5.60
2019-03-18T12:03:16.502Z,5.03
2019-03-18T12:05:48.867Z,4.85
2019-03-18T12:08:19.192Z,4.60
2019-03-18T12:10:50.644Z,9.50
2019-03-18T12:13:21.595Z,4.80
2019-03-18T12:15:52.310Z,5.20
2019-03-18T12:18:23.863Z,4.70
2019-03-18T12:20:56.029Z,4.67
2019-03-18T12:23:28.325Z,7.28
2019-03-18T12:25:59.624Z,6.20
2019-03-18T12:28:30.897Z,4.40
2019-03-18T12:31:01.727Z,5.00
2019-03-18T12:33:33.185Z,7.03
2019-03-18T12:36:09.346Z,7.37
2019-03-18T12:38:41.396Z,7.08
2019-03-18T12:41:12.126Z,7.92
2019-03-18T12:43:45.332Z,7.90
2019-03-18T12:46:15.743Z,7.70
2019-03-18T12:48:47.910Z,8.58
2019-03-18T12:51:19.265Z,6.95
2019-03-18T12:53:50.107Z,6.10
2019-03-18T12:56:21.337Z,6.83
2019-03-18T12:58:51.986Z,8.95
2019-03-18T13:01:23.528Z,9.18
2019-03-18T13:03:54.250Z,8.55
2019-03-18T13:06:24.885Z,6.45
2019-03-18T13:08:55.820Z,5.95
2019-03-18T13:11:26.335Z,8.25
2019-03-18T13:13:57.077Z,6.28
2019-03-18T13:16:27.707Z,5.83
2019-03-18T13:18:58.441Z,6.97
2019-03-18T13:21:30.839Z,7.47
2019-03-18T13:24:05.742Z,8.03
2019-03-18T13:26:36.594Z,7.60
2019-03-18T13:29:07.046Z,7.90
2019-03-18T13:31:37.835Z,8.83
2019-03-18T13:34:08.972Z,8.35
2019-03-18T13:36:39.740Z,8.43
2019-03-18T13:39:10.591Z,8.60
2019-03-18T13:41:42.727Z,8.28
2019-03-18T13:44:13.665Z,8.10
2019-03-18T13:46:45.815Z,8.75
2019-03-18T13:49:17.946Z,8.88
2019-03-18T13:51:48.475Z,11.05
2019-03-18T13:54:20.165Z,8.55
2019-03-18T13:56:51.397Z,8.68
2019-03-18T13:59:22.251Z,9.18
2019-03-18T14:01:52.979Z,8.85
2019-03-18T14:04:25.466Z,8.08
2019-03-18T14:06:56.183Z,9.55
2019-03-18T14:09:26.812Z,9.35
2019-03-18T14:11:59.789Z,8.10
2019-03-18T14:14:30.533Z,7.95
2019-03-18T14:17:02.121Z,7.83
2019-03-18T14:19:32.925Z,7.60
2019-03-18T14:22:03.693Z,7.75
2019-03-18T14:24:34.606Z,8.40
2019-03-18T14:27:05.521Z,7.40
2019-03-18T14:29:36.062Z,7.50
2019-03-18T14:32:08.738Z,8.18
2019-03-18T14:34:39.173Z,8.00
2019-03-18T14:37:11.653Z,8.35
2019-03-18T14:39:42.206Z,7.72
2019-03-18T14:42:12.907Z,7.37
2019-03-18T14:44:45.890Z,7.78
2019-03-18T14:47:16.728Z,8.00
2019-03-18T14:49:47.666Z,7.53
2019-03-18T14:52:18.095Z,7.67
2019-03-18T14:54:49.684Z,7.65
2019-03-18T14:57:20.887Z,7.45
2019-03-18T14:59:53.070Z,8.13
2019-03-18T15:02:23.482Z,7.75
2019-03-18T15:04:54.626Z,8.23
2019-03-18T15:07:25.460Z,8.25
2019-03-18T15:09:56.425Z,9.58
2019-03-18T15:12:27.255Z,9.23
2019-03-18T15:14:58.672Z,8.65
2019-03-18T15:17:31.148Z,8.38
2019-03-18T15:20:02.399Z,8.80
2019-03-18T15:22:32.924Z,9.70
2019-03-18T15:25:03.533Z,8.03
2019-03-18T15:27:34.112Z,7.70
2019-03-18T15:30:11.549Z,7.97
2019-03-18T15:32:42.816Z,9.15
2019-03-18T15:35:14.367Z,9.63
2019-03-18T15:37:46.235Z,10.50
2019-03-18T15:40:20.031Z,9.20
2019-03-18T15:42:50.663Z,9.73
2019-03-18T15:45:26.006Z,8.75
2019-03-18T15:47:56.537Z,9.03
2019-03-18T15:50:27.675Z,9.18
2019-03-18T15:52:58.534Z,8.48
2019-03-18T15:55:30.304Z,8.98
2019-03-18T15:58:01.307Z,8.68
2019-03-18T16:00:32.812Z,9.63
2019-03-18T16:03:04.713Z,8.70
2019-03-18T16:05:35.452Z,9.18
2019-03-18T16:08:06.063Z,10.48
2019-03-18T16:10:36.722Z,10.85
2019-03-18T16:13:07.658Z,10.08
2019-03-18T16:15:38.284Z,11.53
2019-03-18T16:18:09.006Z,11.12
2019-03-18T16:20:43.122Z,12.17
2019-03-18T16:23:14.369Z,12.55
2019-03-18T16:25:46.735Z,12.37
2019-03-18T16:28:19.416Z,13.75
2019-03-18T16:30:50.150Z,12.33
2019-03-18T16:33:23.004Z,12.13
2019-03-18T16:35:56.413Z,11.65
2019-03-18T16:38:27.061Z,11.80
2019-03-18T16:40:58.602Z,14.87
2019-03-18T16:43:29.443Z,12.47
2019-03-18T16:46:01.029Z,12.75
2019-03-18T16:48:31.588Z,12.13
2019-03-18T16:51:02.360Z,12.05
2019-03-18T16:53:34.222Z,13.55
2019-03-18T16:56:07.403Z,13.03
2019-03-18T16:58:38.444Z,13.38
2019-03-18T17:01:10.198Z,12.30
2019-03-18T17:03:40.728Z,11.75
2019-03-18T17:06:11.561Z,13.13
2019-03-18T17:08:42.210Z,13.10
2019-03-18T17:11:12.931Z,12.68
2019-03-18T17:13:44.794Z,12.65
2019-03-18T17:16:16.134Z,12.53
2019-03-18T17:18:46.460Z,13.68
2019-03-18T17:21:17.085Z,13.43
2019-03-18T17:23:49.211Z,13.32
2019-03-18T17:26:22.438Z,13.60
2019-03-18T17:28:53.899Z,13.90
2019-03-18T17:31:24.825Z,14.60
2019-03-18T17:33:55.659Z,14.95
2019-03-18T17:36:26.367Z,14.78
2019-03-18T17:38:57.999Z,17.00
2019-03-18T17:41:28.755Z,16.90
2019-03-18T17:44:00.537Z,16.65
2019-03-18T17:46:31.271Z,16.42
2019-03-18T17:49:02.006Z,16.73
2019-03-18T17:51:33.474Z,16.85
2019-03-18T17:54:04.494Z,17.65
2019-03-18T17:56:36.760Z,16.85
2019-03-18T17:59:07.062Z,17.20
2019-03-18T18:01:38.325Z,16.60
2019-03-18T18:04:11.986Z,14.65
2019-03-18T18:09:12.471Z,13.62
2019-03-18T18:11:43.345Z,13.55
2019-03-18T18:14:14.448Z,13.95
2019-03-18T18:16:44.766Z,14.80
2019-03-18T18:19:16.255Z,13.98
2019-03-18T18:21:47.062Z,15.25
2019-03-18T18:24:18.344Z,14.07
2019-03-18T18:26:49.348Z,14.18
2019-03-18T18:29:20.075Z,13.58
2019-03-18T18:31:51.111Z,12.88
2019-03-18T18:34:21.943Z,13.85
2019-03-18T18:36:52.581Z,13.85
2019-03-18T18:39:23.307Z,12.73
2019-03-18T18:41:53.936Z,13.45
2019-03-18T18:44:24.625Z,13.35
2019-03-18T18:46:55.153Z,14.20
2019-03-18T18:49:26.470Z,13.32
2019-03-18T18:51:59.533Z,12.82
2019-03-18T18:54:32.451Z,13.80
2019-03-18T18:57:03.351Z,12.60
2019-03-18T18:59:34.026Z,12.37
2019-03-18T19:02:04.711Z,12.95
2019-03-18T19:04:35.034Z,11.70
2019-03-18T19:07:08.969Z,12.43
2019-03-18T19:09:39.425Z,12.85
2019-03-18T19:12:13.482Z,12.23
2019-03-18T19:14:43.909Z,12.03
2019-03-18T19:17:16.259Z,12.10
2019-03-18T19:19:49.975Z,12.98
2019-03-18T19:22:20.300Z,12.35
2019-03-18T19:24:51.135Z,12.65
2019-03-18T19:27:22.175Z,12.47
2019-03-18T19:29:53.626Z,12.53
2019-03-18T19:32:25.894Z,12.47
2019-03-18T19:34:56.630Z,11.65
2019-03-18T19:37:27.567Z,12.45
2019-03-18T19:39:58.303Z,12.28
2019-03-18T19:42:29.136Z,12.53
2019-03-18T19:44:59.864Z,11.78
2019-03-18T19:47:30.701Z,11.63
2019-03-18T19:50:02.663Z,12.50
2019-03-18T19:52:33.902Z,12.60
2019-03-18T19:55:05.154Z,12.45
2019-03-18T19:57:35.985Z,12.18
2019-03-18T20:00:23.818Z,13.93
2019-03-18T20:02:54.550Z,13.25
2019-03-18T20:05:25.386Z,12.43
2019-03-18T20:07:56.835Z,13.28
2019-03-18T20:10:27.570Z,13.35
2019-03-18T20:12:58.450Z,13.28
2019-03-18T20:15:31.488Z,13.75
2019-03-18T20:18:02.938Z,13.55
2019-03-18T20:20:33.168Z,12.78
2019-03-18T20:23:04.697Z,14.45
2019-03-18T20:25:36.616Z,16.80
2019-03-18T20:28:07.404Z,16.65
2019-03-18T20:30:37.911Z,18.75
2019-03-18T20:33:08.708Z,20.85
2019-03-18T20:35:39.298Z,20.30
2019-03-18T20:38:10.030Z,21.95
2019-03-18T20:40:40.502Z,22.00
2019-03-18T20:43:11.199Z,21.77
2019-03-18T20:45:42.126Z,23.05
2019-03-18T20:48:12.853Z,22.35
2019-03-18T20:50:43.348Z,22.62
2019-03-18T20:53:15.651Z,22.45
2019-03-18T20:55:46.587Z,22.17
2019-03-18T20:58:16.806Z,21.27
2019-03-18T21:00:47.550Z,19.45
2019-03-18T21:03:18.249Z,20.30
2019-03-18T21:05:48.864Z,17.73
2019-03-18T21:08:20.330Z,19.12
2019-03-18T21:10:52.214Z,17.15
2019-03-18T21:13:22.845Z,16.87
2019-03-18T21:15:53.531Z,18.05
2019-03-18T21:18:24.715Z,16.87
2019-03-18T21:20:55.448Z,17.12
2019-03-18T21:23:26.341Z,16.67
2019-03-18T21:25:56.843Z,16.95
2019-03-18T21:28:28.979Z,15.72
2019-03-18T21:30:59.503Z,16.60
2019-03-18T21:33:30.422Z,16.30
2019-03-18T21:36:01.274Z,16.32
2019-03-18T21:38:32.013Z,16.23
2019-03-18T21:41:02.681Z,16.95
2019-03-18T21:43:33.368Z,17.27
2019-03-18T21:46:04.519Z,17.77
2019-03-18T21:48:35.252Z,17.95
2019-03-18T21:51:08.010Z,18.52
2019-03-18T21:53:38.562Z,20.37
2019-03-18T21:56:10.244Z,19.82
2019-03-18T21:58:40.663Z,19.23
2019-03-18T22:01:11.574Z,19.62
2019-03-18T22:03:42.613Z,19.20
2019-03-18T22:06:13.141Z,18.40
2019-03-18T22:08:44.185Z,17.85
2019-03-18T22:11:14.812Z,17.12
2019-03-18T22:13:45.432Z,16.25
2019-03-18T22:16:16.068Z,15.30
2019-03-18T22:18:47.415Z,14.07
2019-03-18T22:21:17.736Z,14.50
2019-03-18T22:23:49.528Z,14.95
2019-03-18T22:26:21.566Z,14.35
2019-03-18T22:28:52.086Z,13.22
2019-03-18T22:31:22.721Z,12.98
2019-03-18T22:33:54.102Z,12.80
2019-03-18T22:36:25.663Z,12.68
2019-03-18T22:38:56.350Z,12.90
2019-03-18T22:41:26.977Z,12.53
2019-03-18T22:43:57.815Z,12.43
2019-03-18T22:46:28.644Z,12.55
2019-03-18T22:49:01.663Z,12.88
2019-03-18T22:51:32.676Z,12.78
2019-03-18T22:54:03.107Z,12.85
2019-03-18T22:56:36.291Z,10.08
2019-03-18T22:59:07.851Z,13.80
2019-03-18T23:01:39.258Z,12.88
2019-03-18T23:04:11.353Z,12.55
2019-03-18T23:06:42.293Z,12.93
2019-03-18T23:09:13.052Z,11.90
2019-03-18T23:11:43.960Z,11.80
2019-03-18T23:14:17.967Z,11.57
2019-03-18T23:16:48.885Z,11.38
2019-03-18T23:19:21.002Z,10.85
2019-03-18T23:21:54.264Z,11.03
2019-03-18T23:24:25.620Z,11.30
2019-03-18T23:26:56.344Z,9.95
2019-03-18T23:29:28.518Z,10.82
2019-03-18T23:32:00.267Z,11.30
2019-03-18T23:34:30.693Z,10.53
2019-03-18T23:37:04.292Z,10.35
2019-03-18T23:39:34.819Z,10.03
2019-03-18T23:42:07.294Z,10.00
2019-03-18T23:44:37.699Z,11.30
2019-03-18T23:47:08.758Z,10.82
2019-03-18T23:49:39.488Z,11.08
2019-03-18T23:52:10.221Z,10.72
2019-03-18T23:54:41.675Z,11.45
2019-03-18T23:57:12.814Z,11.25
2019-03-18T23:59:45.645Z,11.28
